createdAt,value
2019-04-07T00:00:04.002Z,0.00
2019-04-07T00:01:04.493Z,0.00
2019-04-07T00:02:04.082Z,0.00
2019-04-07T00:03:04.555Z,0.00
2019-04-07T00:04:04.327Z,0.00
2019-04-07T00:05:10.933Z,0.00
2019-04-07T00:06:04.220Z,0.00
2019-04-07T00:07:04.235Z,0.00
2019-04-07T00:08:04.508Z,0.00
2019-04-07T00:09:04.464Z,0.00
2019-04-07T00:10:04.363Z,0.00
2019-04-07T00:11:04.586Z,0.00
2019-04-07T00:12:04.450Z,0.00
2019-04-07T00:13:04.495Z,0.00
2019-04-07T00:14:04.537Z,0.00
2019-04-07T00:15:04.867Z,0.00
2019-04-07T00:16:04.714Z,0.00
2019-04-07T00:17:04.708Z,0.00
2019-04-07T00:18:05.016Z,0.00
2019-04-07T00:19:05.412Z,0.00
2019-04-07T00:20:05.350Z,0.00
2019-04-07T00:21:04.975Z,0.00
2019-04-07T00:22:04.895Z,0.00
2019-04-07T00:23:04.982Z,0.00
2019-04-07T00:24:05.670Z,0.00
2019-04-07T00:25:05.293Z,0.00
2019-04-07T00:26:05.088Z,0.00
2019-04-07T00:27:05.553Z,0.00
2019-04-07T00:28:05.476Z,0.00
2019-04-07T00:29:05.191Z,0.00
2019-04-07T00:30:05.294Z,0.00
2019-04-07T00:31:05.281Z,0.00
2019-04-07T00:32:05.906Z,0.00
2019-04-07T00:33:05.364Z,0.00
2019-04-07T00:34:05.409Z,0.00
2019-04-07T00:35:05.482Z,0.00
2019-04-07T00:36:05.495Z,0.00
2019-04-07T00:37:05.580Z,0.00
2019-04-07T00:38:05.581Z,0.00
2019-04-07T00:39:05.954Z,0.00
2019-04-07T00:40:05.668Z,0.00
2019-04-07T00:41:05.722Z,0.00
2019-04-07T00:42:05.776Z,0.00
2019-04-07T00:43:05.808Z,0.00
2019-04-07T00:44:06.168Z,0.00
2019-04-07T00:45:06.117Z,0.00
2019-04-07T00:46:06.298Z,0.00
2019-04-07T00:47:06.330Z,0.00
2019-04-07T00:48:06.020Z,0.00
2019-04-07T00:49:06.061Z,0.00
2019-04-07T00:50:06.542Z,0.00
2019-04-07T00:51:06.579Z,0.00
2019-04-07T00:52:06.218Z,0.00
2019-04-07T00:53:06.549Z,0.00
2019-04-07T00:54:06.275Z,0.00
2019-04-07T00:55:06.597Z,0.00
2019-04-07T00:56:06.367Z,0.00
2019-04-07T00:57:06.640Z,0.00
2019-04-07T00:58:07.082Z,0.00
2019-04-07T00:59:06.492Z,0.00
2019-04-07T01:00:07.046Z,0.00
2019-04-07T01:01:06.584Z,0.00
2019-04-07T01:02:06.960Z,0.00
2019-04-07T01:03:07.243Z,0.00
2019-04-07T01:04:06.716Z,0.00
2019-04-07T01:05:07.246Z,0.00
2019-04-07T01:06:06.796Z,0.00
2019-04-07T01:07:06.844Z,0.00
2019-04-07T01:08:06.904Z,0.00
2019-04-07T01:09:07.021Z,0.00
2019-04-07T01:10:06.968Z,0.00
2019-04-07T01:11:07.684Z,0.00
2019-04-07T01:12:07.197Z,0.00
2019-04-07T01:13:07.671Z,0.00
2019-04-07T01:14:07.145Z,0.00
2019-04-07T01:15:07.673Z,0.00
2019-04-07T01:16:07.227Z,0.00
2019-04-07T01:17:07.271Z,0.00
2019-04-07T01:18:07.777Z,0.00
2019-04-07T01:19:07.386Z,0.00
2019-04-07T01:20:07.419Z,0.00
2019-04-07T01:21:07.453Z,0.00
2019-04-07T01:22:07.498Z,0.00
2019-04-07T01:23:08.099Z,0.00
2019-04-07T01:24:07.599Z,0.00
2019-04-07T01:25:08.333Z,0.00
2019-04-07T01:26:07.664Z,0.00
2019-04-07T01:27:08.222Z,0.00
2019-04-07T01:28:07.745Z,0.00
2019-04-07T01:29:07.989Z,0.00
2019-04-07T01:30:07.833Z,0.00
2019-04-07T01:31:07.884Z,0.00
2019-04-07T01:32:08.600Z,0.00
2019-04-07T01:33:08.587Z,0.00
2019-04-07T01:34:08.026Z,0.00
2019-04-07T01:35:08.067Z,0.00
2019-04-07T01:36:08.282Z,0.00
2019-04-07T01:37:08.719Z,0.00
2019-04-07T01:38:08.194Z,0.00
2019-04-07T01:39:08.682Z,0.00
2019-04-07T01:40:08.269Z,0.00
2019-04-07T01:41:08.309Z,0.00
2019-04-07T01:42:08.348Z,0.00
2019-04-07T01:43:08.502Z,0.00
2019-04-07T01:44:08.965Z,0.00
2019-04-07T01:45:08.475Z,0.00
2019-04-07T01:46:08.899Z,0.00
2019-04-07T01:47:08.900Z,0.00
2019-04-07T01:48:08.821Z,0.00
2019-04-07T01:49:10.135Z,0.00
2019-04-07T01:50:08.698Z,0.00
2019-04-07T01:51:09.094Z,0.00
2019-04-07T01:52:08.783Z,0.00
2019-04-07T01:53:08.928Z,0.00
2019-04-07T01:54:08.883Z,0.00
2019-04-07T01:55:09.172Z,0.00
2019-04-07T01:56:08.952Z,0.00
2019-04-07T01:57:09.257Z,0.00
2019-04-07T01:58:09.818Z,0.00
2019-04-07T01:59:10.600Z,0.00
2019-04-07T02:00:09.550Z,0.00
2019-04-07T02:01:09.179Z,0.00
2019-04-07T02:02:09.333Z,0.00
2019-04-07T02:03:09.968Z,0.00
2019-04-07T02:04:09.343Z,0.00
2019-04-07T02:05:09.705Z,0.00
2019-04-07T02:06:09.506Z,0.00
2019-04-07T02:07:09.415Z,0.00
2019-04-07T02:08:09.459Z,0.00
2019-04-07T02:09:09.514Z,0.00
2019-04-07T02:10:09.745Z,0.00
2019-04-07T02:11:10.278Z,0.00
2019-04-07T02:12:10.291Z,0.00
2019-04-07T02:13:09.681Z,0.00
2019-04-07T02:14:10.181Z,0.00
2019-04-07T02:15:09.800Z,0.00
2019-04-07T02:16:10.285Z,0.00
2019-04-07T02:17:09.862Z,0.00
2019-04-07T02:18:09.889Z,0.00
2019-04-07T02:19:09.932Z,0.00
2019-04-07T02:20:10.319Z,0.00
2019-04-07T02:21:10.040Z,0.00
2019-04-07T02:22:10.128Z,0.00
2019-04-07T02:23:10.198Z,0.00
2019-04-07T02:24:10.264Z,0.00
2019-04-07T02:25:10.738Z,0.00
2019-04-07T02:26:10.248Z,0.00
2019-04-07T02:27:10.271Z,0.00
2019-04-07T02:28:10.315Z,0.00
2019-04-07T02:29:10.356Z,0.00
2019-04-07T02:30:10.407Z,0.00
2019-04-07T02:31:10.729Z,0.00
2019-04-07T02:32:10.489Z,0.00
2019-04-07T02:33:10.703Z,0.00
2019-04-07T02:34:11.680Z,0.00
2019-04-07T02:35:10.617Z,0.00
2019-04-07T02:36:17.945Z,0.00
2019-04-07T02:37:10.702Z,0.00
2019-04-07T02:38:13.338Z,0.00
2019-04-07T02:39:11.190Z,0.00
2019-04-07T02:40:11.711Z,0.00
2019-04-07T02:41:10.896Z,0.00
2019-04-07T02:42:11.004Z,0.00
2019-04-07T02:43:10.961Z,0.00
2019-04-07T02:44:10.998Z,0.00
2019-04-07T02:45:11.104Z,0.00
2019-04-07T02:46:11.168Z,0.00
2019-04-07T02:47:11.142Z,0.00
2019-04-07T02:48:11.168Z,0.00
2019-04-07T02:49:12.206Z,0.00
2019-04-07T02:50:12.405Z,0.00
2019-04-07T02:51:11.319Z,0.00
2019-04-07T02:52:11.345Z,0.00
2019-04-07T02:53:11.397Z,0.00
2019-04-07T02:54:11.546Z,0.00
2019-04-07T02:55:11.468Z,0.00
2019-04-07T02:56:11.538Z,0.00
2019-04-07T02:57:11.580Z,0.00
2019-04-07T02:58:11.607Z,0.00
2019-04-07T02:59:12.041Z,0.00
2019-04-07T03:00:12.037Z,0.00
2019-04-07T03:01:11.740Z,0.00
2019-04-07T03:02:12.096Z,0.00
2019-04-07T03:03:11.813Z,0.00
2019-04-07T03:04:11.958Z,0.00
2019-04-07T03:05:12.019Z,0.00
2019-04-07T03:06:16.403Z,0.00
2019-04-07T03:07:12.145Z,0.00
2019-04-07T03:08:12.098Z,0.00
2019-04-07T03:09:12.855Z,0.00
2019-04-07T03:10:12.974Z,0.00
2019-04-07T03:11:12.151Z,0.00
2019-04-07T03:12:12.430Z,0.00
2019-04-07T03:13:12.725Z,0.00
2019-04-07T03:14:12.511Z,0.00
2019-04-07T03:15:12.996Z,0.00
2019-04-07T03:16:12.371Z,0.00
2019-04-07T03:17:12.411Z,0.00
2019-04-07T03:18:12.850Z,0.00
2019-04-07T03:19:13.197Z,0.00
2019-04-07T03:20:12.536Z,0.00
2019-04-07T03:21:13.082Z,0.00
2019-04-07T03:22:12.622Z,0.00
2019-04-07T03:23:12.920Z,0.00
2019-04-07T03:24:12.710Z,0.00
2019-04-07T03:25:13.253Z,0.00
2019-04-07T03:26:12.807Z,0.00
2019-04-07T03:27:13.487Z,0.00
2019-04-07T03:28:12.926Z,0.00
2019-04-07T03:29:13.971Z,0.00
2019-04-07T03:30:13.792Z,0.00
2019-04-07T03:31:14.689Z,0.00
2019-04-07T03:32:18.317Z,0.00
2019-04-07T03:33:15.409Z,0.00
2019-04-07T03:34:14.758Z,0.00
2019-04-07T03:35:14.929Z,0.00
2019-04-07T03:36:17.467Z,0.00
2019-04-07T03:37:27.108Z,0.00
2019-04-07T03:38:13.904Z,0.00
2019-04-07T03:39:13.420Z,0.00
2019-04-07T03:40:13.868Z,0.00
2019-04-07T03:41:13.561Z,0.00
2019-04-07T03:42:13.472Z,0.00
2019-04-07T03:43:13.550Z,0.00
2019-04-07T03:44:14.318Z,0.00
2019-04-07T03:45:13.639Z,0.00
2019-04-07T03:46:14.209Z,0.00
2019-04-07T03:47:14.343Z,0.00
2019-04-07T03:48:13.818Z,0.00
2019-04-07T03:49:13.793Z,0.00
2019-04-07T03:50:13.973Z,0.00
2019-04-07T03:51:13.861Z,0.00
2019-04-07T03:52:14.072Z,0.00
2019-04-07T03:53:13.944Z,0.00
2019-04-07T03:54:15.016Z,0.00
2019-04-07T03:55:15.167Z,0.00
2019-04-07T03:56:14.505Z,0.00
2019-04-07T03:57:14.966Z,0.00
2019-04-07T03:58:14.165Z,0.00
2019-04-07T03:59:14.779Z,0.00
2019-04-07T04:00:14.237Z,0.00
2019-04-07T04:01:14.281Z,0.00
2019-04-07T04:02:14.385Z,0.00
2019-04-07T04:03:14.768Z,0.00
2019-04-07T04:04:14.431Z,0.00
2019-04-07T04:05:14.734Z,0.00
2019-04-07T04:06:14.495Z,0.00
2019-04-07T04:07:23.695Z,0.00
2019-04-07T04:08:14.578Z,0.00
2019-04-07T04:09:15.479Z,0.00
2019-04-07T04:10:14.683Z,0.00
2019-04-07T04:11:14.707Z,0.00
2019-04-07T04:12:15.048Z,0.00
2019-04-07T04:13:14.794Z,0.00
2019-04-07T04:14:15.202Z,0.00
2019-04-07T04:15:15.117Z,0.00
2019-04-07T04:16:15.022Z,0.00
2019-04-07T04:17:14.981Z,0.00
2019-04-07T04:18:16.116Z,0.00
2019-04-07T04:19:15.045Z,0.00
2019-04-07T04:20:16.018Z,0.00
2019-04-07T04:21:15.356Z,0.00
2019-04-07T04:22:15.273Z,0.00
2019-04-07T04:23:15.214Z,0.00
2019-04-07T04:24:15.283Z,0.00
2019-04-07T04:25:15.318Z,0.00
2019-04-07T04:26:15.340Z,0.00
2019-04-07T04:27:15.385Z,0.00
2019-04-07T04:28:16.268Z,0.00
2019-04-07T04:29:15.670Z,0.00
2019-04-07T04:30:15.538Z,0.00
2019-04-07T04:31:15.556Z,0.00
2019-04-07T04:32:16.620Z,0.00
2019-04-07T04:33:15.916Z,0.00
2019-04-07T04:34:15.731Z,0.00
2019-04-07T04:35:15.747Z,0.00
2019-04-07T04:36:15.766Z,0.00
2019-04-07T04:37:16.651Z,0.00
2019-04-07T04:38:15.926Z,0.00
2019-04-07T04:39:18.714Z,0.00
2019-04-07T04:40:16.103Z,0.00
2019-04-07T04:41:16.570Z,0.00
2019-04-07T04:42:16.181Z,0.00
2019-04-07T04:43:16.071Z,0.00
2019-04-07T04:44:16.523Z,0.00
2019-04-07T04:45:16.167Z,0.00
2019-04-07T04:46:16.970Z,0.00
2019-04-07T04:47:16.705Z,0.00
2019-04-07T04:48:17.240Z,0.00
2019-04-07T04:49:16.993Z,5.63
2019-04-07T04:50:16.886Z,5.63
2019-04-07T04:51:16.446Z,5.63
2019-04-07T04:52:16.464Z,5.63
2019-04-07T04:53:17.118Z,5.63
2019-04-07T04:54:17.197Z,5.63
2019-04-07T04:55:16.753Z,5.63
2019-04-07T04:56:16.819Z,5.63
2019-04-07T04:57:17.664Z,11.25
2019-04-07T04:58:17.476Z,11.25
2019-04-07T04:59:16.745Z,11.25
2019-04-07T05:00:18.489Z,11.25
2019-04-07T05:01:17.490Z,11.25
2019-04-07T05:02:17.148Z,16.88
2019-04-07T05:03:17.983Z,16.88
2019-04-07T05:04:17.442Z,16.88
2019-04-07T05:05:17.114Z,22.50
2019-04-07T05:06:17.897Z,22.50
2019-04-07T05:07:17.146Z,22.50
2019-04-07T05:08:17.549Z,28.13
2019-04-07T05:09:17.921Z,28.13
2019-04-07T05:10:17.215Z,33.75
2019-04-07T05:11:17.502Z,33.75
2019-04-07T05:12:17.574Z,33.75
2019-04-07T05:13:17.990Z,39.38
2019-04-07T05:14:17.384Z,39.38
2019-04-07T05:15:17.515Z,39.38
2019-04-07T05:16:17.575Z,39.38
2019-04-07T05:17:17.542Z,45.00
2019-04-07T05:18:17.580Z,45.00
2019-04-07T05:19:18.174Z,45.00
2019-04-07T05:20:18.241Z,45.00
2019-04-07T05:21:17.694Z,45.00
2019-04-07T05:22:17.941Z,45.00
2019-04-07T05:23:18.141Z,50.63
2019-04-07T05:24:17.963Z,50.63
2019-04-07T05:25:18.431Z,50.63
2019-04-07T05:26:17.911Z,50.63
2019-04-07T05:27:18.569Z,56.25
2019-04-07T05:28:17.988Z,56.25
2019-04-07T05:29:18.642Z,56.25
2019-04-07T05:30:18.072Z,61.88
2019-04-07T05:31:18.648Z,61.88
2019-04-07T05:32:18.217Z,61.88
2019-04-07T05:33:18.798Z,61.88
2019-04-07T05:34:20.408Z,67.50
2019-04-07T05:35:18.741Z,67.50
2019-04-07T05:36:18.328Z,67.50
2019-04-07T05:37:18.818Z,67.50
2019-04-07T05:38:19.066Z,67.50
2019-04-07T05:39:18.481Z,67.50
2019-04-07T05:40:19.075Z,73.13
2019-04-07T05:41:18.543Z,73.13
2019-04-07T05:42:18.850Z,78.75
2019-04-07T05:43:18.661Z,84.38
2019-04-07T05:44:18.909Z,84.38
2019-04-07T05:45:18.800Z,90.00
2019-04-07T05:46:19.317Z,90.00
2019-04-07T05:47:19.029Z,95.63
2019-04-07T05:48:20.341Z,95.63
2019-04-07T05:49:19.742Z,95.63
2019-04-07T05:50:18.942Z,101.25
2019-04-07T05:51:19.566Z,101.25
2019-04-07T05:52:19.342Z,101.25
2019-04-07T05:53:19.117Z,101.25
2019-04-07T05:54:20.161Z,101.25
2019-04-07T05:55:21.828Z,106.88
2019-04-07T05:56:19.757Z,106.88
2019-04-07T05:57:19.709Z,106.88
2019-04-07T05:58:20.052Z,112.50
2019-04-07T05:59:19.869Z,112.50
2019-04-07T06:00:19.674Z,112.50
2019-04-07T06:01:23.261Z,112.50
2019-04-07T06:02:19.464Z,106.88
2019-04-07T06:03:20.361Z,106.88
2019-04-07T06:04:19.582Z,106.88
2019-04-07T06:05:19.707Z,101.25
2019-04-07T06:06:20.867Z,101.25
2019-04-07T06:07:20.265Z,101.25
2019-04-07T06:08:27.775Z,101.25
2019-04-07T06:09:20.779Z,106.88
2019-04-07T06:10:22.853Z,112.50
2019-04-07T06:11:20.399Z,112.50
2019-04-07T06:12:20.353Z,118.13
2019-04-07T06:13:20.005Z,129.38
2019-04-07T06:14:20.493Z,129.38
2019-04-07T06:15:22.224Z,135.00
2019-04-07T06:16:20.944Z,140.63
2019-04-07T06:17:21.089Z,140.63
2019-04-07T06:18:20.169Z,140.63
2019-04-07T06:19:20.365Z,146.25
2019-04-07T06:20:20.286Z,151.88
2019-04-07T06:21:20.311Z,157.50
2019-04-07T06:22:21.032Z,163.13
2019-04-07T06:23:24.256Z,168.75
2019-04-07T06:24:22.305Z,180.00
2019-04-07T06:25:20.917Z,185.63
2019-04-07T06:26:20.944Z,191.25
2019-04-07T06:27:20.573Z,196.88
2019-04-07T06:28:20.714Z,191.25
2019-04-07T06:29:24.713Z,185.63
2019-04-07T06:30:20.763Z,185.63
2019-04-07T06:31:23.500Z,185.63
2019-04-07T06:32:20.917Z,191.25
2019-04-07T06:33:20.938Z,191.25
2019-04-07T06:34:21.550Z,191.25
2019-04-07T06:35:20.953Z,185.63
2019-04-07T06:36:21.213Z,185.63
2019-04-07T06:37:22.875Z,185.63
2019-04-07T06:38:30.513Z,191.25
2019-04-07T06:39:21.521Z,196.88
2019-04-07T06:40:22.178Z,196.88
2019-04-07T06:41:21.741Z,208.13
2019-04-07T06:42:21.993Z,219.38
2019-04-07T06:43:21.286Z,230.63
2019-04-07T06:44:22.974Z,236.25
2019-04-07T06:45:22.765Z,241.88
2019-04-07T06:46:24.631Z,247.50
2019-04-07T06:47:21.510Z,247.50
2019-04-07T06:48:22.192Z,253.13
2019-04-07T06:49:21.921Z,258.75
2019-04-07T06:50:22.439Z,264.38
2019-04-07T06:51:21.662Z,270.00
2019-04-07T06:52:21.693Z,275.63
2019-04-07T06:53:21.801Z,270.00
2019-04-07T06:54:22.220Z,275.63
2019-04-07T06:55:22.702Z,264.38
2019-04-07T06:56:21.876Z,247.50
2019-04-07T06:57:21.924Z,236.25
2019-04-07T06:58:21.975Z,230.63
2019-04-07T06:59:22.028Z,230.63
2019-04-07T07:00:23.809Z,230.63
2019-04-07T07:01:24.510Z,225.00
2019-04-07T07:02:22.562Z,225.00
2019-04-07T07:03:22.645Z,230.63
2019-04-07T07:04:22.325Z,247.50
2019-04-07T07:05:22.389Z,253.13
2019-04-07T07:06:22.926Z,247.50
2019-04-07T07:07:22.649Z,247.50
2019-04-07T07:08:22.437Z,253.13
2019-04-07T07:09:25.717Z,258.75
2019-04-07T07:10:29.021Z,270.00
2019-04-07T07:11:28.582Z,275.63
2019-04-07T07:12:30.904Z,281.25
2019-04-07T07:13:29.234Z,281.25
2019-04-07T07:14:32.947Z,275.63
2019-04-07T07:15:23.370Z,281.25
2019-04-07T07:16:22.906Z,286.88
2019-04-07T07:17:22.850Z,292.50
2019-04-07T07:18:23.868Z,303.75
2019-04-07T07:19:26.238Z,309.38
2019-04-07T07:20:25.114Z,303.75
2019-04-07T07:21:24.517Z,309.38
2019-04-07T07:22:23.593Z,298.13
2019-04-07T07:23:23.198Z,303.75
2019-04-07T07:24:25.365Z,309.38
2019-04-07T07:25:23.276Z,298.13
2019-04-07T07:26:23.416Z,315.00
2019-04-07T07:27:23.896Z,326.25
2019-04-07T07:28:23.686Z,337.50
2019-04-07T07:29:23.581Z,354.38
2019-04-07T07:30:23.488Z,348.75
2019-04-07T07:31:25.427Z,354.38
2019-04-07T07:32:23.658Z,365.63
2019-04-07T07:33:23.595Z,376.88
2019-04-07T07:34:23.713Z,354.38
2019-04-07T07:35:24.365Z,343.13
2019-04-07T07:36:23.996Z,331.88
2019-04-07T07:37:25.358Z,331.88
2019-04-07T07:38:24.561Z,331.88
2019-04-07T07:39:23.951Z,331.88
2019-04-07T07:40:24.213Z,331.88
2019-04-07T07:41:24.482Z,326.25
2019-04-07T07:42:24.444Z,326.25
2019-04-07T07:43:24.077Z,331.88
2019-04-07T07:44:24.604Z,337.50
2019-04-07T07:45:24.159Z,365.63
2019-04-07T07:46:24.223Z,376.88
2019-04-07T07:47:24.275Z,405.00
2019-04-07T07:48:27.103Z,382.50
2019-04-07T07:49:24.769Z,382.50
2019-04-07T07:50:24.536Z,405.00
2019-04-07T07:51:24.801Z,371.25
2019-04-07T07:52:24.510Z,348.75
2019-04-07T07:53:27.069Z,337.50
2019-04-07T07:54:27.697Z,348.75
2019-04-07T07:55:25.193Z,348.75
2019-04-07T07:56:24.688Z,348.75
2019-04-07T07:57:24.947Z,354.38
2019-04-07T07:58:28.057Z,360.00
2019-04-07T07:59:25.024Z,360.00
2019-04-07T08:00:25.644Z,354.38
2019-04-07T08:01:25.621Z,348.75
2019-04-07T08:02:24.970Z,354.38
2019-04-07T08:03:25.052Z,354.38
2019-04-07T08:04:26.442Z,354.38
2019-04-07T08:05:29.836Z,360.00
2019-04-07T08:06:25.162Z,360.00
2019-04-07T08:07:25.895Z,348.75
2019-04-07T08:08:25.423Z,337.50
2019-04-07T08:09:26.344Z,331.88
2019-04-07T08:10:26.643Z,320.63
2019-04-07T08:11:25.403Z,303.75
2019-04-07T08:12:25.525Z,298.13
2019-04-07T08:13:25.832Z,298.13
2019-04-07T08:14:26.035Z,303.75
2019-04-07T08:15:31.005Z,303.75
2019-04-07T08:16:29.391Z,309.38
2019-04-07T08:17:25.954Z,303.75
2019-04-07T08:18:26.188Z,303.75
2019-04-07T08:19:29.354Z,315.00
2019-04-07T08:20:25.884Z,331.88
2019-04-07T08:21:25.870Z,348.75
2019-04-07T08:22:31.431Z,382.50
2019-04-07T08:23:26.282Z,405.00
2019-04-07T08:24:26.163Z,416.25
2019-04-07T08:25:26.071Z,427.50
2019-04-07T08:26:26.102Z,444.38
2019-04-07T08:27:29.923Z,455.63
2019-04-07T08:28:26.534Z,461.25
2019-04-07T08:29:26.906Z,461.25
2019-04-07T08:30:27.214Z,461.25
2019-04-07T08:31:26.452Z,472.50
2019-04-07T08:32:29.658Z,466.88
2019-04-07T08:33:28.769Z,466.88
2019-04-07T08:34:26.565Z,466.88
2019-04-07T08:35:26.537Z,478.13
2019-04-07T08:36:27.092Z,500.63
2019-04-07T08:37:26.634Z,534.38
2019-04-07T08:38:27.951Z,545.63
2019-04-07T08:39:31.468Z,545.63
2019-04-07T08:40:27.343Z,556.88
2019-04-07T08:41:26.819Z,573.75
2019-04-07T08:42:26.964Z,545.63
2019-04-07T08:43:27.596Z,495.00
2019-04-07T08:44:29.281Z,472.50
2019-04-07T08:45:30.054Z,466.88
2019-04-07T08:46:29.584Z,444.38
2019-04-07T08:47:27.183Z,427.50
2019-04-07T08:48:27.870Z,450.00
2019-04-07T08:49:27.623Z,472.50
2019-04-07T08:50:28.542Z,523.13
2019-04-07T08:51:30.798Z,562.50
2019-04-07T08:52:28.144Z,545.63
2019-04-07T08:53:27.411Z,517.50
2019-04-07T08:54:27.614Z,528.75
2019-04-07T08:55:28.200Z,523.13
2019-04-07T08:56:27.773Z,579.38
2019-04-07T08:57:30.489Z,618.75
2019-04-07T08:58:28.972Z,607.50
2019-04-07T08:59:28.187Z,579.38
2019-04-07T09:00:28.257Z,556.88
2019-04-07T09:01:29.596Z,511.88
2019-04-07T09:02:29.184Z,466.88
2019-04-07T09:03:28.013Z,444.38
2019-04-07T09:04:28.420Z,427.50
2019-04-07T09:05:30.954Z,444.38
2019-04-07T09:06:29.193Z,568.13
2019-04-07T09:07:28.707Z,613.13
2019-04-07T09:08:28.137Z,624.38
2019-04-07T09:09:34.071Z,613.13
2019-04-07T09:10:28.279Z,630.00
2019-04-07T09:11:28.376Z,759.38
2019-04-07T09:12:30.928Z,843.75
2019-04-07T09:13:31.654Z,1040.63
2019-04-07T09:14:28.459Z,871.88
2019-04-07T09:15:28.635Z,821.25
2019-04-07T09:16:29.038Z,838.13
2019-04-07T09:17:33.151Z,736.88
2019-04-07T09:18:28.631Z,759.38
2019-04-07T09:19:28.811Z,787.50
2019-04-07T09:20:29.220Z,787.50
2019-04-07T09:21:37.266Z,815.63
2019-04-07T09:22:30.718Z,798.75
2019-04-07T09:23:29.492Z,787.50
2019-04-07T09:24:31.367Z,781.88
2019-04-07T09:25:31.505Z,793.13
2019-04-07T09:26:29.049Z,843.75
2019-04-07T09:27:29.081Z,798.75
2019-04-07T09:28:29.785Z,714.38
2019-04-07T09:29:30.043Z,641.25
2019-04-07T09:30:29.718Z,596.25
2019-04-07T09:31:29.310Z,573.75
2019-04-07T09:32:30.100Z,568.13
2019-04-07T09:33:29.793Z,556.88
2019-04-07T09:34:30.196Z,568.13
2019-04-07T09:35:29.798Z,517.50
2019-04-07T09:36:32.351Z,483.75
2019-04-07T09:37:29.581Z,433.13
2019-04-07T09:38:29.644Z,365.63
2019-04-07T09:39:33.972Z,348.75
2019-04-07T09:40:30.313Z,433.13
2019-04-07T09:41:30.623Z,517.50
2019-04-07T09:42:29.874Z,573.75
2019-04-07T09:43:30.615Z,596.25
2019-04-07T09:44:33.878Z,596.25
2019-04-07T09:45:29.978Z,579.38
2019-04-07T09:46:30.032Z,534.38
2019-04-07T09:47:30.374Z,500.63
2019-04-07T09:48:30.136Z,461.25
2019-04-07T09:49:30.917Z,433.13
2019-04-07T09:50:30.228Z,427.50
2019-04-07T09:51:30.914Z,410.63
2019-04-07T09:52:30.562Z,466.88
2019-04-07T09:53:30.518Z,405.00
2019-04-07T09:54:30.427Z,421.88
2019-04-07T09:55:30.805Z,438.75
2019-04-07T09:56:32.846Z,438.75
2019-04-07T09:57:31.417Z,421.88
2019-04-07T09:58:30.888Z,382.50
2019-04-07T09:59:30.733Z,365.63
2019-04-07T10:00:30.994Z,354.38
2019-04-07T10:01:30.852Z,348.75
2019-04-07T10:02:34.142Z,354.38
2019-04-07T10:03:30.897Z,360.00
2019-04-07T10:04:30.941Z,371.25
2019-04-07T10:05:31.095Z,388.13
2019-04-07T10:06:31.022Z,416.25
2019-04-07T10:07:31.551Z,466.88
2019-04-07T10:08:31.630Z,500.63
2019-04-07T10:09:31.178Z,517.50
2019-04-07T10:10:31.465Z,511.88
2019-04-07T10:11:31.764Z,472.50
2019-04-07T10:12:32.053Z,427.50
2019-04-07T10:13:31.780Z,376.88
2019-04-07T10:14:31.740Z,348.75
2019-04-07T10:15:31.689Z,354.38
2019-04-07T10:16:33.880Z,393.75
2019-04-07T10:17:31.765Z,416.25
2019-04-07T10:18:33.686Z,433.13
2019-04-07T10:19:31.734Z,466.88
2019-04-07T10:20:32.532Z,517.50
2019-04-07T10:21:32.410Z,568.13
2019-04-07T10:22:32.061Z,607.50
2019-04-07T10:23:32.136Z,590.63
2019-04-07T10:24:32.552Z,523.13
2019-04-07T10:25:31.962Z,450.00
2019-04-07T10:26:32.524Z,450.00
2019-04-07T10:27:32.866Z,540.00
2019-04-07T10:28:32.365Z,798.75
2019-04-07T10:29:32.967Z,973.13
2019-04-07T10:30:32.213Z,1091.25
2019-04-07T10:31:32.747Z,1237.50
2019-04-07T10:32:32.312Z,1119.38
2019-04-07T10:33:32.361Z,1006.88
2019-04-07T10:34:33.064Z,956.25
2019-04-07T10:35:32.759Z,978.75
2019-04-07T10:36:32.943Z,928.13
2019-04-07T10:37:33.473Z,995.63
2019-04-07T10:38:32.795Z,978.75
2019-04-07T10:39:32.687Z,826.88
2019-04-07T10:40:33.369Z,810.00
2019-04-07T10:41:32.776Z,945.00
2019-04-07T10:42:33.520Z,1113.75
2019-04-07T10:43:32.884Z,990.00
2019-04-07T10:44:34.084Z,1243.13
2019-04-07T10:45:33.039Z,1423.13
2019-04-07T10:46:33.631Z,1383.75
2019-04-07T10:47:33.564Z,1389.38
2019-04-07T10:48:33.280Z,1423.13
2019-04-07T10:49:34.037Z,1428.75
2019-04-07T10:50:33.666Z,1372.50
2019-04-07T10:51:33.273Z,1085.63
2019-04-07T10:52:33.911Z,1046.25
2019-04-07T10:53:34.538Z,1237.50
2019-04-07T10:54:33.729Z,849.38
2019-04-07T10:55:34.103Z,843.75
2019-04-07T10:56:34.349Z,815.63
2019-04-07T10:57:34.410Z,770.63
2019-04-07T10:58:33.699Z,680.63
2019-04-07T10:59:34.241Z,641.25
2019-04-07T11:00:33.823Z,624.38
2019-04-07T11:01:34.578Z,607.50
2019-04-07T11:02:33.966Z,607.50
2019-04-07T11:03:34.071Z,618.75
2019-04-07T11:04:34.082Z,646.88
2019-04-07T11:05:34.038Z,663.75
2019-04-07T11:06:34.045Z,1119.38
2019-04-07T11:07:34.104Z,663.75
2019-04-07T11:08:34.164Z,641.25
2019-04-07T11:09:34.387Z,630.00
2019-04-07T11:10:38.810Z,658.13
2019-04-07T11:11:34.303Z,765.00
2019-04-07T11:12:34.681Z,776.25
2019-04-07T11:13:34.407Z,630.00
2019-04-07T11:14:35.018Z,624.38
2019-04-07T11:15:35.102Z,618.75
2019-04-07T11:16:34.573Z,607.50
2019-04-07T11:17:34.644Z,618.75
2019-04-07T11:18:34.780Z,641.25
2019-04-07T11:19:36.134Z,663.75
2019-04-07T11:20:34.822Z,753.75
2019-04-07T11:21:34.947Z,742.50
2019-04-07T11:22:36.944Z,714.38
2019-04-07T11:23:34.930Z,725.63
2019-04-07T11:24:35.167Z,753.75
2019-04-07T11:25:35.014Z,877.50
2019-04-07T11:26:35.304Z,1389.38
2019-04-07T11:27:35.410Z,1417.50
2019-04-07T11:28:35.204Z,961.88
2019-04-07T11:29:37.630Z,1012.50
2019-04-07T11:30:35.462Z,1192.50
2019-04-07T11:31:35.367Z,1035.00
2019-04-07T11:32:35.935Z,1192.50
2019-04-07T11:33:36.154Z,1316.25
2019-04-07T11:34:35.603Z,1203.75
2019-04-07T11:35:35.626Z,1203.75
2019-04-07T11:36:36.362Z,1057.50
2019-04-07T11:37:36.413Z,928.13
2019-04-07T11:38:36.190Z,945.00
2019-04-07T11:39:36.244Z,945.00
2019-04-07T11:40:42.538Z,1051.88
2019-04-07T11:41:36.067Z,1018.13
2019-04-07T11:42:35.918Z,939.38
2019-04-07T11:43:35.973Z,1175.63
2019-04-07T11:44:36.005Z,1125.00
2019-04-07T11:45:36.082Z,1001.25
2019-04-07T11:46:36.096Z,922.50
2019-04-07T11:47:36.249Z,883.13
2019-04-07T11:48:36.200Z,798.75
2019-04-07T11:49:36.256Z,753.75
2019-04-07T11:50:36.351Z,720.00
2019-04-07T11:51:36.854Z,725.63
2019-04-07T11:52:36.496Z,759.38
2019-04-07T11:53:36.484Z,753.75
2019-04-07T11:54:37.039Z,736.88
2019-04-07T11:55:36.699Z,759.38
2019-04-07T11:56:37.191Z,804.38
2019-04-07T11:57:36.704Z,798.75
2019-04-07T11:58:36.842Z,804.38
2019-04-07T11:59:37.685Z,826.88
2019-04-07T12:00:39.206Z,871.88
2019-04-07T12:01:36.881Z,928.13
2019-04-07T12:02:39.010Z,866.25
2019-04-07T12:03:37.527Z,916.88
2019-04-07T12:04:37.927Z,1085.63
2019-04-07T12:05:37.827Z,1411.88
2019-04-07T12:06:37.504Z,945.00
2019-04-07T12:07:37.229Z,905.63
2019-04-07T12:08:37.720Z,1788.75
2019-04-07T12:09:37.310Z,1670.63
2019-04-07T12:10:37.765Z,1704.38
2019-04-07T12:11:37.396Z,1755.00
2019-04-07T12:12:37.529Z,990.00
2019-04-07T12:13:38.559Z,1012.50
2019-04-07T12:14:38.337Z,1372.50
2019-04-07T12:15:37.610Z,1192.50
2019-04-07T12:16:38.010Z,1299.38
2019-04-07T12:17:41.481Z,1580.63
2019-04-07T12:18:38.614Z,1766.25
2019-04-07T12:19:38.557Z,1530.00
2019-04-07T12:20:37.888Z,1490.63
2019-04-07T12:21:39.123Z,1321.88
2019-04-07T12:22:38.079Z,1636.88
2019-04-07T12:23:38.217Z,1738.13
2019-04-07T12:24:38.095Z,1788.75
2019-04-07T12:25:38.453Z,1783.13
2019-04-07T12:26:41.960Z,1749.38
2019-04-07T12:27:40.642Z,1721.25
2019-04-07T12:28:38.326Z,1698.75
2019-04-07T12:29:38.622Z,1659.38
2019-04-07T12:30:39.055Z,1636.88
2019-04-07T13:31:03.302Z,0.00
2019-04-07T13:32:03.407Z,0.00
2019-04-07T13:33:04.447Z,0.00
2019-04-07T13:34:04.196Z,0.00
2019-04-07T13:35:03.507Z,0.00
2019-04-07T13:36:03.561Z,0.00
2019-04-07T13:37:04.488Z,0.00
2019-04-07T13:38:04.396Z,0.00
2019-04-07T13:39:04.411Z,0.00
2019-04-07T13:40:03.989Z,0.00
2019-04-07T13:41:04.112Z,0.00
2019-04-07T13:42:03.901Z,0.00
2019-04-07T13:43:04.410Z,0.00
2019-04-07T13:44:07.181Z,0.00
2019-04-07T13:45:04.458Z,0.00
2019-04-07T13:46:04.098Z,0.00
2019-04-07T13:47:06.564Z,0.00
2019-04-07T13:48:05.759Z,0.00